National Weather Service Raw Text Product

Displaying AFOS PIL: TAFDSM Received: 2018-06-14 01:46 UTC


928 
FTUS43 KDMX 140146 AAB
TAFDSM
TAF AMD
KDSM 140146Z 1402/1424 VRB05KT P6SM BKN100
     FM140300 14005KT P6SM SCT120
     FM141100 12009KT P6SM BKN070
     FM141700 14012KT P6SM BKN080=